Latest Weather Observations for Broome

IDW60801

Issued at 7:32 pm WST Tuesday 28 April 2015 (issued every 30 minutes, with the page automatically refreshed every 10 minutes)

About weather observations | Map of weather stations | Latest weather observations for WA | Other Formats
Station Details ID: 003003 Name: BROOME AIRPORT Lat: -17.95 Lon: 122.24 Height: 7.42 m
Data from the previous 72 hours. | See also: Recent months at Broome
Date/Time
WST
Temp
°C
App
Temp
°C
Dew
Point
Rel
Hum
%
Delta-T
°C
Wind Press
QNH
hPa
Press
MSL
hPa
Rain
since 9 am
mm
Dir
 
Spd
km/h
Gust
km/h
Spd
kts
Gust
kts
28/07:30pm 25.2 25.9 17.1 60 5.0 W 9 11 5 6 1015.5 - 0.0
28/07:00pm 25.4 26.1 17.9 63 4.7 WNW 11 13 6 7 1015.0 - 0.0
28/06:30pm 25.4 26.7 19.3 69 3.9 WNW 11 13 6 7 1014.5 - 0.0
28/06:00pm 26.2 26.3 15.5 51 6.5 SW 9 11 5 6 1013.9 1013.8 0.0
28/05:30pm 27.5 27.5 14.1 43 8.0 WSW 7 11 4 6 1013.4 - 0.0
28/05:00pm 29.2 27.8 13.4 38 9.4 WSW 13 15 7 8 1013.0 - 0.0
28/04:30pm 30.7 29.6 10.6 29 11.5 WNW 7 13 4 7 1012.7 - 0.0
28/04:00pm 31.1 29.1 8.6 24 12.5 SE 9 13 5 7 1012.5 - 0.0
28/03:30pm 31.4 28.5 6.5 21 13.4 SSE 11 17 6 9 1012.2 - 0.0
28/03:00pm 31.7 29.3 8.5 23 12.9 ESE 11 15 6 8 1011.9 1011.8 0.0
28/02:30pm 32.1 28.7 4.2 17 14.5 E 11 24 6 13 1011.8 - 0.0
28/02:00pm 32.4 27.2 3.4 16 14.9 NE 20 24 11 13 1012.0 - 0.0
28/01:30pm 31.7 26.5 3.3 16 14.5 E 20 30 11 16 1012.3 - 0.0
28/01:00pm 31.9 26.6 3.0 16 14.7 ESE 20 28 11 15 1012.4 - 0.0
28/12:30pm 31.2 25.6 3.3 17 14.2 E 22 33 12 18 1012.8 - 0.0
28/12:00pm 31.1 25.6 3.8 17 14.0 ENE 22 32 12 17 1013.2 1013.1 0.0
28/11:30am 30.9 25.0 3.8 18 13.9 ENE 24 35 13 19 1013.7 - 0.0
28/11:00am 30.2 25.3 5.1 20 13.1 ENE 20 28 11 15 1014.3 - 0.0
28/10:30am 29.3 24.5 5.6 22 12.4 ENE 20 28 11 15 1014.8 - 0.0
28/10:00am 28.5 23.4 4.0 21 12.4 ENE 20 32 11 17 1015.2 - 0.0
28/09:30am 27.5 21.7 4.4 22 11.7 E 24 35 13 19 1015.6 - 0.0
28/09:00am 25.5 19.9 5.5 27 10.2 E 24 37 13 20 1015.7 1015.6 0.0
28/08:30am 24.7 18.9 6.2 30 9.5 E 26 37 14 20 1015.7 - 0.0
28/08:00am 22.8 19.6 6.9 36 8.2 E 13 24 7 13 1015.8 - 0.0
28/07:30am 20.4 17.5 6.5 40 7.0 E 11 15 6 8 1015.7 - 0.0
28/07:00am 18.5 16.5 7.2 47 5.7 E 7 9 4 5 1015.5 - 0.0
28/06:30am 16.5 14.4 6.8 52 4.8 E 7 9 4 5 1015.2 - 0.0
28/06:00am 15.2 12.9 7.5 60 3.8 E 9 11 5 6 1014.8 1014.7 0.0
28/05:30am 15.5 12.8 7.2 57 4.1 E 11 13 6 7 1014.5 - 0.0
28/05:00am 16.1 13.6 6.7 53 4.6 E 9 11 5 6 1014.4 - 0.0
28/04:30am 16.9 13.8 5.7 47 5.4 E 11 13 6 7 1014.2 - 0.0
28/04:00am 17.3 14.2 5.5 45 5.7 E 11 15 6 8 1014.2 - 0.0
28/03:30am 18.1 14.6 5.6 44 6.1 E 13 17 7 9 1014.3 - 0.0
28/03:00am 18.7 15.2 5.6 42 6.4 E 13 17 7 9 1014.2 1014.1 0.0
28/02:30am 19.1 15.2 5.4 40 6.7 E 15 19 8 10 1014.2 - 0.0
28/02:00am 19.5 15.6 5.4 39 6.9 E 15 19 8 10 1014.3 - 0.0
28/01:30am 20.3 16.1 5.8 38 7.2 E 17 20 9 11 1014.4 - 0.0
28/01:00am 21.2 17.0 5.8 36 7.7 ESE 17 24 9 13 1014.7 - 0.0
28/12:30am 22.0 17.4 5.6 34 8.2 ESE 19 28 10 15 1015.0 - 0.0
28/12:00am 22.2 17.5 6.2 35 8.1 ESE 20 26 11 14 1015.3 1015.2 0.0
 
Date/Time
WST
Temp
°C
App
Temp
°C
Dew
Point
Rel
Hum
%
Delta-T
°C
Wind Press
QNH
hPa
Press
MSL
hPa
Rain
since 9 am
mm
Dir
 
Spd
km/h
Gust
km/h
Spd
kts
Gust
kts
27/11:30pm 23.0 18.3 6.0 33 8.6 ESE 20 28 11 15 1015.5 - 0.0
27/11:00pm 23.3 19.1 7.4 36 8.3 ESE 19 28 10 15 1015.7 - 0.0
27/10:30pm 24.6 20.3 6.9 32 9.2 ESE 19 30 10 16 1015.8 - 0.0
27/10:00pm 24.5 20.8 7.9 34 8.8 ESE 17 24 9 13 1015.8 - 0.0
27/09:30pm 24.3 20.7 8.4 36 8.5 ESE 17 20 9 11 1015.8 - 0.0
27/09:00pm 24.4 20.6 7.7 34 8.8 ESE 17 24 9 13 1015.5 1015.4 0.0
27/08:30pm 25.0 22.1 11.1 41 7.8 ESE 17 22 9 12 1015.5 - 0.0
27/08:00pm 26.2 22.5 9.4 34 9.2 ESE 19 26 10 14 1015.2 - 0.0
27/07:30pm 26.7 23.1 10.0 35 9.3 SE 19 26 10 14 1015.0 - 0.0
27/07:00pm 27.2 24.0 10.0 34 9.6 SE 17 30 9 16 1014.6 - 0.0
27/06:30pm 27.6 24.1 10.3 34 9.7 SSE 19 30 10 16 1014.4 - 0.0
27/06:00pm 28.2 24.9 9.7 31 10.3 SE 17 24 9 13 1014.0 1013.9 0.0
27/05:30pm 28.7 24.9 9.0 29 10.9 SE 19 26 10 14 1013.6 - 0.0
27/05:00pm 29.2 26.2 11.8 34 10.1 SSE 19 28 10 15 1013.4 - 0.0
27/04:30pm 29.9 26.2 9.3 27 11.5 SSE 19 24 10 13 1013.1 - 0.0
27/04:00pm 30.4 26.5 9.3 27 11.8 SSE 20 30 11 16 1012.9 - 0.0
27/03:30pm 30.9 27.4 8.8 25 12.3 SSE 17 22 9 12 1012.7 - 0.0
27/03:00pm 32.0 28.3 6.4 20 13.8 SSE 15 22 8 12 1012.6 1012.5 0.0
27/02:30pm 32.0 27.8 5.7 19 14.0 ESE 17 24 9 13 1012.3 - 0.0
27/02:00pm 32.6 28.3 6.9 20 14.0 E 19 28 10 15 1012.4 - 0.0
27/01:30pm 32.0 27.6 6.7 20 13.7 E 19 28 10 15 1012.7 - 0.0
27/01:00pm 32.5 28.4 7.9 21 13.6 ENE 19 28 10 15 1013.0 - 0.0
27/12:30pm 31.2 26.7 7.0 22 13.1 ENE 20 30 11 16 1013.5 - 0.0
27/12:00pm 30.9 25.3 5.5 20 13.4 E 24 32 13 17 1013.9 1013.8 0.0
27/11:30am 30.7 24.2 2.9 17 14.0 ENE 26 35 14 19 1014.5 - 0.0
27/11:00am 31.7 25.6 2.9 16 14.6 E 24 35 13 19 1014.9 - 0.0
27/10:30am 29.2 22.1 1.5 17 13.5 E 28 41 15 22 1015.0 - 0.0
27/10:00am 28.4 23.8 5.8 24 11.8 E 19 32 10 17 1015.5 - 0.0
27/09:30am 27.8 23.1 5.3 24 11.6 E 19 28 10 15 1015.7 - 0.0
27/09:00am 27.0 21.0 3.4 22 11.7 E 24 39 13 21 1015.7 1015.6 0.0
27/08:30am 26.2 21.2 4.6 25 10.9 E 20 30 11 16 1015.6 - 0.0
27/08:00am 25.3 20.0 3.2 24 10.8 E 20 33 11 18 1015.4 - 0.0
27/07:30am 24.5 19.7 4.7 27 9.9 E 19 28 10 15 1015.1 - 0.0
27/07:00am 22.8 18.4 4.8 31 8.9 E 17 22 9 12 1015.0 - 0.0
27/06:30am 21.4 18.5 6.6 38 7.5 E 11 17 6 9 1014.7 - 0.0
27/06:00am 20.9 17.7 7.0 40 7.1 E 13 19 7 10 1014.4 1014.3 0.0
27/05:30am 21.3 18.3 7.8 41 7.0 ESE 13 15 7 8 1014.0 - 0.0
27/05:00am 21.5 18.9 7.6 40 7.2 ESE 11 13 6 7 1013.7 - 0.0
27/04:30am 21.3 18.9 8.8 44 6.6 ESE 11 13 6 7 1013.6 - 0.0
27/04:00am 20.1 19.2 12.6 62 4.2 E 9 11 5 6 1013.6 - 0.0
27/03:30am 21.6 20.5 10.6 49 6.0 ESE 7 11 4 6 1013.3 - 0.0
27/03:00am 21.0 20.8 12.9 60 4.6 E 6 6 3 3 1013.4 1013.3 0.0
27/02:30am 20.9 21.5 15.9 73 3.0 E 7 9 4 5 1013.6 - 0.0
27/02:00am 21.0 22.2 16.0 73 3.0 E 4 7 2 4 1013.8 - 0.0
27/01:30am 21.9 23.2 14.0 61 4.6 CALM 0 0 0 0 1014.0 - 0.0
27/01:00am 21.7 22.8 13.4 59 4.8 CALM 0 0 0 0 1013.9 - 0.0
27/12:30am 21.1 21.3 14.2 64 4.0 NNE 6 7 3 4 1014.2 - 0.0
27/12:00am 21.6 21.6 14.2 62 4.3 NE 7 7 4 4 1014.5 1014.4 0.0
 
Date/Time
WST
Temp
°C
App
Temp
°C
Dew
Point
Rel
Hum
%
Delta-T
°C
Wind Press
QNH
hPa
Press
MSL
hPa
Rain
since 9 am
mm
Dir
 
Spd
km/h
Gust
km/h
Spd
kts
Gust
kts
26/11:30pm 22.3 22.5 14.7 62 4.5 NNE 7 9 4 5 1014.6 - 0.0
26/11:00pm 22.8 23.0 14.7 60 4.8 NNE 7 11 4 6 1014.7 - 0.0
26/10:30pm 23.4 23.4 13.6 54 5.7 NE 6 9 3 5 1014.5 - 0.0
26/10:00pm 23.0 23.3 14.9 60 4.8 NE 7 9 4 5 1014.4 - 0.0
26/09:30pm 23.6 23.8 14.7 57 5.3 NE 7 11 4 6 1014.6 - 0.0
26/09:00pm 24.0 24.5 15.1 57 5.3 N 6 9 3 5 1014.7 1014.6 0.0
26/08:30pm 24.8 25.4 16.9 61 4.9 ENE 9 11 5 6 1014.7 - 0.0
26/08:00pm 27.1 27.2 16.4 52 6.6 SE 11 15 6 8 1014.5 - 0.0
26/07:30pm 27.6 27.9 17.0 52 6.6 SE 11 13 6 7 1014.3 - 0.0
26/07:00pm 28.0 28.7 17.0 51 6.9 SE 9 13 5 7 1014.0 - 0.0
26/06:30pm 28.2 28.8 17.6 52 6.7 SE 11 13 6 7 1013.5 - 0.0
26/06:00pm 29.3 28.2 14.4 40 9.0 SE 13 19 7 10 1013.2 1013.1 0.0
26/05:30pm 29.6 28.2 14.6 40 9.1 SSE 15 20 8 11 1012.9 - 0.0
26/05:00pm 30.0 29.5 15.8 42 8.8 SSE 13 19 7 10 1012.4 - 0.0
26/04:30pm 31.5 30.2 12.6 31 11.2 ESE 11 15 6 8 1011.9 - 0.0
26/04:00pm 32.6 29.7 9.6 24 13.1 E 15 20 8 11 1011.6 - 0.0
26/03:30pm 33.0 30.7 10.5 25 13.0 E 13 17 7 9 1011.5 - 0.0
26/03:00pm 32.9 30.4 9.8 24 13.2 E 13 19 7 10 1011.5 1011.4 0.0
26/02:30pm 32.9 29.3 8.4 22 13.7 E 17 24 9 13 1011.4 - 0.0
26/02:00pm 32.7 29.1 8.3 22 13.6 E 17 22 9 12 1011.6 - 0.0
26/01:30pm 32.3 28.4 8.5 23 13.3 ENE 19 30 10 16 1011.7 - 0.0
26/01:00pm 32.6 28.2 7.2 20 13.9 ENE 20 32 11 17 1011.8 - 0.0
26/12:30pm 32.1 27.7 6.6 20 13.8 E 19 32 10 17 1012.2 - 0.0
26/12:00pm 31.2 26.6 6.7 21 13.2 E 20 32 11 17 1012.6 1012.5 0.0
26/11:30am 30.4 25.9 6.8 22 12.7 E 20 33 11 18 1012.9 - 0.0
26/11:00am 30.3 25.0 6.6 22 12.7 E 24 35 13 19 1013.1 - 0.0
26/10:30am 29.6 24.2 6.5 23 12.3 E 24 33 13 18 1013.6 - 0.0
26/10:00am 28.6 24.1 6.8 25 11.6 E 20 33 11 18 1014.0 - 0.0
26/09:30am 27.5 22.0 6.0 25 11.2 ESE 24 35 13 19 1014.3 - 0.0
26/09:00am 27.2 22.3 7.0 27 10.7 E 22 32 12 17 1014.4 1014.3 0.0
26/08:30am 26.3 22.4 7.2 29 10.1 ESE 17 26 9 14 1014.2 - 0.0
26/08:00am 25.2 21.3 7.1 31 9.5 E 17 26 9 14 1013.8 - 0.0
26/07:30am 25.0 20.4 6.5 30 9.6 ESE 20 26 11 14 1013.6 - 0.0
26/07:00am 25.0 20.5 6.8 31 9.5 ESE 20 30 11 16 1013.4 - 0.0
26/06:30am 25.2 20.7 6.8 30 9.6 ESE 20 28 11 15 1013.0 - 0.0
26/06:00am 25.3 21.3 8.3 34 9.1 ESE 19 26 10 14 1012.7 1012.6 0.0
26/05:30am 25.1 22.3 10.1 38 8.3 ESE 15 20 8 11 1012.6 - 0.0
26/05:00am 25.2 21.2 6.8 30 9.6 ESE 17 24 9 13 1012.3 - 0.0
26/04:30am 25.2 22.3 8.2 34 9.1 ESE 13 19 7 10 1012.1 - 0.0
26/04:00am 25.7 23.4 11.7 41 8.0 ESE 15 20 8 11 1012.2 - 0.0
26/03:30am 26.3 23.8 11.1 38 8.6 ESE 15 20 8 11 1012.3 - 0.0
26/03:00am 26.4 24.0 11.5 39 8.5 SE 15 20 8 11 1012.3 1012.2 0.0
26/02:30am 25.9 25.1 13.9 47 7.1 ESE 11 15 6 8 1012.4 - 0.0
26/02:00am 25.8 24.1 12.5 43 7.7 ESE 13 17 7 9 1012.5 - 0.0
26/01:30am 26.1 24.1 12.7 43 7.8 ESE 15 20 8 11 1012.6 - 0.0
26/01:00am 26.6 25.2 13.3 43 7.8 ESE 13 20 7 11 1012.8 - 0.0
26/12:30am 26.9 25.3 13.9 44 7.7 SE 15 22 8 12 1013.1 - 0.0
26/12:00am 27.2 24.7 13.5 42 8.1 SE 19 24 10 13 1013.0 1012.9 0.0
 
Date/Time
WST
Temp
°C
App
Temp
°C
Dew
Point
Rel
Hum
%
Delta-T
°C
Wind Press
QNH
hPa
Press
MSL
hPa
Rain
since 9 am
mm
Dir
 
Spd
km/h
Gust
km/h
Spd
kts
Gust
kts
25/11:30pm 27.0 26.4 15.7 50 6.9 SE 13 19 7 10 1013.3 - 0.0
25/11:00pm 27.1 27.1 17.2 54 6.2 SE 13 17 7 9 1013.4 - 0.0
25/10:30pm 27.2 27.3 16.4 51 6.7 SE 11 13 6 7 1013.4 - 0.0
25/10:00pm 27.5 27.7 15.8 48 7.2 SSE 9 17 5 9 1013.4 - 0.0
25/09:30pm 27.1 27.9 17.2 54 6.2 SE 9 11 5 6 1013.5 - 0.0
25/09:00pm 27.0 28.7 18.4 59 5.5 SSE 7 11 4 6 1013.7 1013.6 0.0
25/08:30pm 27.4 26.8 14.6 45 7.7 SE 11 13 6 7 1013.6 - 0.0
25/08:00pm 27.1 26.9 15.6 49 7.0 ESE 11 15 6 8 1013.4 - 0.0

Other Formats:

Comma delimited format used in spreadsheet applications
http://www.bom.gov.au/fwo/IDW60801/IDW60801.94203.axf

JavaScript Object Notation format (JSON) in row-major order
http://www.bom.gov.au/fwo/IDW60801/IDW60801.94203.json